Tropical Cyclones
[Index]
Main Index Home Page Stock Weather Photos Extreme Storms Discussion Storm News and Storm Chasing Reports Tropical Cyclones / Hurricanes / Typhoons Weather Data and Links Wild Fires / Bushfires Weather Observation Techniques Weather Picture Catalogue Tornado Pictures and Reports Stock Video Footage and DVDs for sale
Season 2003-2004 Tropical Cyclone HETA Track Map
Season 2003-2004 Summaries: [BoM-AU] [JTWC-AU] [JTWC-SIO] [JTWC-SPAC] [JTWC-SH]
<<- Previous TC | JTWC 2003-2004 Season | Next TC ->>

click for intensity scale information  Lat/long Grid: Show Hide

 Date Labels: Show Hide

Joint Typhoon Warning Centre Cyclone Data

Name: HETA

29 Dec 2003 12:00 UTC to 09 Jan 2004 12:00 UTC

    date/time    lat    long     hPa   cat  kts
2003-12-29 12   14.3   180.0    1004         20          
2003-12-29 18   13.6   179.7W   1004         20          
2003-12-30 00   13.2   179.1W   1009         25          
2003-12-30 06   12.9   178.6W   1002         25          
2003-12-30 12   12.7   178.1W   1002         25          
2003-12-30 18   12.6   177.7W   1000         30          
2003-12-31 00   12.6   177.4W   1000         30          
2003-12-31 06   12.7   177.1W   1000         30          
2003-12-31 12   12.3   176.6W   1000         30          
2003-12-31 18   11.6   176.1W   1000         30          
2004-01-01 00   10.5   175.8W   1000         30          
2004-01-01 06    9.5   175.4W    997         35          
2004-01-01 12    8.6   175.1W    997         35          
2004-01-01 18    8.1   174.8W    997         35          
2004-01-02 00    8.0   174.4W    994    1    40          
2004-01-02 06    8.0   174.1W    991    1    45          
2004-01-02 12    8.2   173.9W    987    1    50          
2004-01-02 18    8.6   173.8W    984    2    55          
2004-01-03 00    9.2   173.8W    990    2    60          
2004-01-03 06    9.8   173.9W    976    2    65          
2004-01-03 12   10.5   174.0W    976    2    65          
2004-01-03 18   10.6   174.6W    967    3    75          
2004-01-04 00   11.2   174.8W    967    3    75          
2004-01-04 06   11.7   174.5W    973    3    85          
2004-01-04 12   12.3   174.3W    938    4   105          
2004-01-04 18   13.2   174.1W    936    5   125          
2004-01-05 00   14.0   173.9W    921    5   140          
2004-01-05 06   14.6   173.4W    898    5   140          
2004-01-05 12   15.6   172.9W    898    5   140          
2004-01-05 18   16.8   171.9W    931    5   130          
2004-01-06 00   18.2   170.8W    931    5   130          
2004-01-06 06   19.8   169.7W    922    4   120          
2004-01-06 12   21.3   168.4W    927    4   115          
2004-01-06 18   22.9   167.1W    938    4   105          
2004-01-07 00   24.4   165.4W    966    3    95          
2004-01-07 06   26.2   164.0W    976    3    80          
2004-01-07 12   27.7   162.3W    976    2    65          
2004-01-07 18   28.9   160.8W    997    1    50          
2004-01-08 00   30.3   159.7W   1000    1    45          
2004-01-08 06   31.6   158.9W   1000         30          
2004-01-08 12   32.5   158.2W   1000         30          
2004-01-08 18   33.2   157.7W    994    1    40          
2004-01-09 00   33.7   157.3W    997         35          
2004-01-09 06   34.2   156.9W   1000         30          
2004-01-09 12   34.8   156.4W   1000         30          
Winds are 1-min average.

Tropical cyclone tracks developed by Michael Bath using data from the Joint Typhoon Warning Centre Best Tracks and Google Maps.


[Australian Severe Weather index] [Copyright Notice] [Email Contacts] [Search This Site] [Privacy Policy]
Document: tropical_cyclone_heta.htm Updated: 28 June 2017